sensor_id;sensor_type;location;lat;lon;timestamp;P1;durP1;ratioP1;P2;durP2;ratioP2
24761;SDS011;12865;51.934;10.330;2022-09-09T00:00:12;3.03;;;1.25;;
24761;SDS011;12865;51.934;10.330;2022-09-09T00:06:49;2.60;;;1.20;;
24761;SDS011;12865;51.934;10.330;2022-09-09T00:09:30;2.30;;;0.90;;
24761;SDS011;12865;51.934;10.330;2022-09-09T00:12:40;2.13;;;0.90;;
24761;SDS011;12865;51.934;10.330;2022-09-09T00:19:06;3.97;;;0.90;;
24761;SDS011;12865;51.934;10.330;2022-09-09T00:25:09;2.22;;;1.10;;
24761;SDS011;12865;51.934;10.330;2022-09-09T00:28:01;3.50;;;1.10;;
24761;SDS011;12865;51.934;10.330;2022-09-09T00:30:47;1.40;;;1.00;;
24761;SDS011;12865;51.934;10.330;2022-09-09T00:33:35;2.08;;;1.17;;
24761;SDS011;12865;51.934;10.330;2022-09-09T00:36:24;2.22;;;1.25;;
24761;SDS011;12865;51.934;10.330;2022-09-09T00:39:34;4.15;;;1.38;;
24761;SDS011;12865;51.934;10.330;2022-09-09T00:42:40;2.28;;;1.33;;
24761;SDS011;12865;51.934;10.330;2022-09-09T00:45:38;3.67;;;1.35;;
24761;SDS011;12865;51.934;10.330;2022-09-09T00:48:50;1.92;;;1.30;;
24761;SDS011;12865;51.934;10.330;2022-09-09T00:57:47;3.03;;;1.00;;
24761;SDS011;12865;51.934;10.330;2022-09-09T01:00:49;1.52;;;1.10;;
24761;SDS011;12865;51.934;10.330;2022-09-09T01:06:34;2.05;;;1.27;;
24761;SDS011;12865;51.934;10.330;2022-09-09T01:09:32;2.20;;;1.17;;
24761;SDS011;12865;51.934;10.330;2022-09-09T01:12:42;3.38;;;1.40;;
24761;SDS011;12865;51.934;10.330;2022-09-09T01:15:32;2.17;;;1.20;;
24761;SDS011;12865;51.934;10.330;2022-09-09T01:18:20;3.13;;;1.48;;
24761;SDS011;12865;51.934;10.330;2022-09-09T01:27:02;2.70;;;1.40;;
24761;SDS011;12865;51.934;10.330;2022-09-09T01:29:50;4.93;;;1.30;;
24761;SDS011;12865;51.934;10.330;2022-09-09T01:32:37;3.08;;;1.27;;
24761;SDS011;12865;51.934;10.330;2022-09-09T01:35:37;5.43;;;1.75;;
24761;SDS011;12865;51.934;10.330;2022-09-09T01:38:30;3.63;;;1.30;;
24761;SDS011;12865;51.934;10.330;2022-09-09T01:41:17;2.60;;;1.60;;
24761;SDS011;12865;51.934;10.330;2022-09-09T01:44:03;3.55;;;1.60;;
24761;SDS011;12865;51.934;10.330;2022-09-09T01:46:50;2.60;;;1.30;;
24761;SDS011;12865;51.934;10.330;2022-09-09T01:49:36;4.82;;;1.50;;
24761;SDS011;12865;51.934;10.330;2022-09-09T01:52:21;2.72;;;1.70;;
24761;SDS011;12865;51.934;10.330;2022-09-09T01:55:07;3.45;;;1.50;;
24761;SDS011;12865;51.934;10.330;2022-09-09T02:01:13;4.00;;;1.73;;
24761;SDS011;12865;51.934;10.330;2022-09-09T02:04:53;3.45;;;1.80;;
24761;SDS011;12865;51.934;10.330;2022-09-09T02:07:21;5.65;;;1.90;;
24761;SDS011;12865;51.934;10.330;2022-09-09T02:13:30;5.22;;;1.60;;
24761;SDS011;12865;51.934;10.330;2022-09-09T02:19:36;6.10;;;1.83;;
24761;SDS011;12865;51.934;10.330;2022-09-09T02:22:24;6.22;;;1.77;;
24761;SDS011;12865;51.934;10.330;2022-09-09T02:25:14;7.10;;;1.73;;
24761;SDS011;12865;51.934;10.330;2022-09-09T02:28:06;5.28;;;1.85;;
24761;SDS011;12865;51.934;10.330;2022-09-09T02:30:54;4.22;;;1.98;;
24761;SDS011;12865;51.934;10.330;2022-09-09T02:33:42;4.13;;;1.50;;
24761;SDS011;12865;51.934;10.330;2022-09-09T02:36:33;5.45;;;1.65;;
24761;SDS011;12865;51.934;10.330;2022-09-09T02:39:21;3.00;;;1.55;;
24761;SDS011;12865;51.934;10.330;2022-09-09T02:42:07;2.53;;;1.75;;
24761;SDS011;12865;51.934;10.330;2022-09-09T02:44:53;4.15;;;1.80;;
24761;SDS011;12865;51.934;10.330;2022-09-09T02:50:54;5.78;;;2.00;;
24761;SDS011;12865;51.934;10.330;2022-09-09T02:57:01;4.80;;;1.73;;
24761;SDS011;12865;51.934;10.330;2022-09-09T02:59:52;3.42;;;1.48;;
24761;SDS011;12865;51.934;10.330;2022-09-09T03:02:38;5.65;;;1.70;;
24761;SDS011;12865;51.934;10.330;2022-09-09T03:05:24;2.95;;;1.63;;
24761;SDS011;12865;51.934;10.330;2022-09-09T03:08:11;3.35;;;1.70;;
24761;SDS011;12865;51.934;10.330;2022-09-09T03:10:58;5.25;;;1.30;;
24761;SDS011;12865;51.934;10.330;2022-09-09T03:13:46;2.83;;;1.60;;
24761;SDS011;12865;51.934;10.330;2022-09-09T03:16:32;5.15;;;2.17;;
24761;SDS011;12865;51.934;10.330;2022-09-09T03:19:19;5.03;;;2.13;;
24761;SDS011;12865;51.934;10.330;2022-09-09T03:22:06;6.78;;;2.03;;
24761;SDS011;12865;51.934;10.330;2022-09-09T03:24:53;5.43;;;1.83;;
24761;SDS011;12865;51.934;10.330;2022-09-09T03:27:39;5.18;;;1.67;;
24761;SDS011;12865;51.934;10.330;2022-09-09T03:30:26;3.85;;;1.85;;
24761;SDS011;12865;51.934;10.330;2022-09-09T03:33:12;5.22;;;2.15;;
24761;SDS011;12865;51.934;10.330;2022-09-09T03:35:58;5.90;;;1.77;;
24761;SDS011;12865;51.934;10.330;2022-09-09T03:38:43;5.32;;;1.88;;
24761;SDS011;12865;51.934;10.330;2022-09-09T03:41:29;4.18;;;1.70;;
24761;SDS011;12865;51.934;10.330;2022-09-09T03:44:15;3.80;;;1.80;;
24761;SDS011;12865;51.934;10.330;2022-09-09T03:47:01;3.40;;;1.60;;
24761;SDS011;12865;51.934;10.330;2022-09-09T03:49:46;4.57;;;1.80;;
24761;SDS011;12865;51.934;10.330;2022-09-09T03:52:37;6.68;;;2.28;;
24761;SDS011;12865;51.934;10.330;2022-09-09T03:55:24;5.50;;;1.90;;
24761;SDS011;12865;51.934;10.330;2022-09-09T03:58:09;4.32;;;1.77;;
24761;SDS011;12865;51.934;10.330;2022-09-09T04:00:56;5.97;;;2.13;;
24761;SDS011;12865;51.934;10.330;2022-09-09T04:03:43;4.78;;;1.50;;
24761;SDS011;12865;51.934;10.330;2022-09-09T04:06:30;2.85;;;1.77;;
24761;SDS011;12865;51.934;10.330;2022-09-09T04:09:15;5.57;;;1.70;;
24761;SDS011;12865;51.934;10.330;2022-09-09T04:12:01;4.18;;;2.08;;
24761;SDS011;12865;51.934;10.330;2022-09-09T04:14:47;5.15;;;1.70;;
24761;SDS011;12865;51.934;10.330;2022-09-09T04:17:33;4.72;;;1.75;;
24761;SDS011;12865;51.934;10.330;2022-09-09T04:20:18;8.02;;;2.00;;
24761;SDS011;12865;51.934;10.330;2022-09-09T04:23:04;5.97;;;2.10;;
24761;SDS011;12865;51.934;10.330;2022-09-09T04:25:52;3.65;;;1.60;;
24761;SDS011;12865;51.934;10.330;2022-09-09T04:28:39;4.20;;;1.50;;
24761;SDS011;12865;51.934;10.330;2022-09-09T04:31:25;4.72;;;1.75;;
24761;SDS011;12865;51.934;10.330;2022-09-09T04:34:11;3.90;;;1.50;;
24761;SDS011;12865;51.934;10.330;2022-09-09T04:36:56;4.03;;;1.65;;
24761;SDS011;12865;51.934;10.330;2022-09-09T04:39:42;3.75;;;1.60;;
24761;SDS011;12865;51.934;10.330;2022-09-09T04:42:28;8.57;;;2.00;;
24761;SDS011;12865;51.934;10.330;2022-09-09T04:45:13;3.35;;;1.60;;
24761;SDS011;12865;51.934;10.330;2022-09-09T04:47:59;4.88;;;1.65;;
24761;SDS011;12865;51.934;10.330;2022-09-09T04:50:53;3.60;;;1.48;;
24761;SDS011;12865;51.934;10.330;2022-09-09T04:53:42;3.88;;;1.73;;
24761;SDS011;12865;51.934;10.330;2022-09-09T04:56:28;3.20;;;1.30;;
24761;SDS011;12865;51.934;10.330;2022-09-09T04:59:14;2.63;;;1.33;;
24761;SDS011;12865;51.934;10.330;2022-09-09T05:02:00;4.57;;;1.60;;
24761;SDS011;12865;51.934;10.330;2022-09-09T05:04:47;5.25;;;1.70;;
24761;SDS011;12865;51.934;10.330;2022-09-09T05:07:35;5.32;;;1.50;;
24761;SDS011;12865;51.934;10.330;2022-09-09T05:10:21;7.32;;;1.60;;
24761;SDS011;12865;51.934;10.330;2022-09-09T05:13:07;4.25;;;1.42;;
24761;SDS011;12865;51.934;10.330;2022-09-09T05:15:53;4.80;;;1.50;;
24761;SDS011;12865;51.934;10.330;2022-09-09T05:18:40;4.25;;;1.98;;
24761;SDS011;12865;51.934;10.330;2022-09-09T05:21:27;3.85;;;1.48;;
24761;SDS011;12865;51.934;10.330;2022-09-09T05:24:13;3.35;;;1.58;;
24761;SDS011;12865;51.934;10.330;2022-09-09T05:26:59;3.58;;;1.65;;
24761;SDS011;12865;51.934;10.330;2022-09-09T05:29:47;5.00;;;1.58;;
24761;SDS011;12865;51.934;10.330;2022-09-09T05:32:33;4.43;;;1.40;;
24761;SDS011;12865;51.934;10.330;2022-09-09T05:35:19;6.85;;;1.60;;
24761;SDS011;12865;51.934;10.330;2022-09-09T05:38:05;2.95;;;1.30;;
24761;SDS011;12865;51.934;10.330;2022-09-09T05:40:52;6.10;;;1.63;;
24761;SDS011;12865;51.934;10.330;2022-09-09T05:43:38;4.20;;;1.55;;
24761;SDS011;12865;51.934;10.330;2022-09-09T05:46:24;5.63;;;1.70;;
24761;SDS011;12865;51.934;10.330;2022-09-09T05:49:10;2.55;;;1.85;;
24761;SDS011;12865;51.934;10.330;2022-09-09T05:51:55;3.13;;;1.55;;
24761;SDS011;12865;51.934;10.330;2022-09-09T05:54:41;4.03;;;1.60;;
24761;SDS011;12865;51.934;10.330;2022-09-09T05:57:27;4.60;;;1.65;;
24761;SDS011;12865;51.934;10.330;2022-09-09T06:00:13;3.80;;;1.60;;
24761;SDS011;12865;51.934;10.330;2022-09-09T06:03:00;5.30;;;1.80;;
24761;SDS011;12865;51.934;10.330;2022-09-09T06:05:45;4.10;;;1.90;;
24761;SDS011;12865;51.934;10.330;2022-09-09T06:08:35;4.78;;;1.90;;
24761;SDS011;12865;51.934;10.330;2022-09-09T06:11:24;3.42;;;1.83;;
24761;SDS011;12865;51.934;10.330;2022-09-09T06:14:12;4.07;;;1.63;;
24761;SDS011;12865;51.934;10.330;2022-09-09T06:16:58;4.22;;;1.75;;
24761;SDS011;12865;51.934;10.330;2022-09-09T06:19:43;5.50;;;1.63;;
24761;SDS011;12865;51.934;10.330;2022-09-09T06:22:29;5.85;;;1.80;;
24761;SDS011;12865;51.934;10.330;2022-09-09T06:25:15;3.55;;;1.95;;
24761;SDS011;12865;51.934;10.330;2022-09-09T06:28:00;2.30;;;1.15;;
24761;SDS011;12865;51.934;10.330;2022-09-09T06:30:47;3.40;;;1.20;;
24761;SDS011;12865;51.934;10.330;2022-09-09T06:33:37;3.38;;;1.67;;
24761;SDS011;12865;51.934;10.330;2022-09-09T06:36:27;3.72;;;1.50;;
24761;SDS011;12865;51.934;10.330;2022-09-09T06:39:14;3.25;;;1.23;;
24761;SDS011;12865;51.934;10.330;2022-09-09T06:42:00;4.32;;;1.35;;
24761;SDS011;12865;51.934;10.330;2022-09-09T06:44:46;3.38;;;1.63;;
24761;SDS011;12865;51.934;10.330;2022-09-09T06:47:32;4.70;;;1.50;;
24761;SDS011;12865;51.934;10.330;2022-09-09T06:50:18;4.07;;;1.35;;
24761;SDS011;12865;51.934;10.330;2022-09-09T06:53:05;3.03;;;1.05;;
24761;SDS011;12865;51.934;10.330;2022-09-09T06:55:51;4.18;;;1.30;;
24761;SDS011;12865;51.934;10.330;2022-09-09T06:58:37;4.07;;;1.30;;
24761;SDS011;12865;51.934;10.330;2022-09-09T07:01:30;1.38;;;1.02;;
24761;SDS011;12865;51.934;10.330;2022-09-09T07:04:17;3.13;;;1.40;;
24761;SDS011;12865;51.934;10.330;2022-09-09T07:07:03;4.68;;;1.20;;
24761;SDS011;12865;51.934;10.330;2022-09-09T07:09:49;2.50;;;1.20;;
24761;SDS011;12865;51.934;10.330;2022-09-09T07:12:35;5.45;;;1.42;;
24761;SDS011;12865;51.934;10.330;2022-09-09T07:15:21;2.47;;;1.38;;
24761;SDS011;12865;51.934;10.330;2022-09-09T07:18:08;2.22;;;1.60;;
24761;SDS011;12865;51.934;10.330;2022-09-09T07:20:55;5.05;;;1.65;;
24761;SDS011;12865;51.934;10.330;2022-09-09T07:23:42;2.75;;;1.20;;
24761;SDS011;12865;51.934;10.330;2022-09-09T07:26:29;4.45;;;1.40;;
24761;SDS011;12865;51.934;10.330;2022-09-09T07:29:16;5.25;;;1.23;;
24761;SDS011;12865;51.934;10.330;2022-09-09T07:32:01;5.65;;;1.45;;
24761;SDS011;12865;51.934;10.330;2022-09-09T07:34:49;3.00;;;1.35;;
24761;SDS011;12865;51.934;10.330;2022-09-09T07:37:36;6.10;;;1.80;;
24761;SDS011;12865;51.934;10.330;2022-09-09T07:40:22;3.60;;;1.73;;
24761;SDS011;12865;51.934;10.330;2022-09-09T07:43:08;5.63;;;1.30;;
24761;SDS011;12865;51.934;10.330;2022-09-09T07:45:57;2.45;;;1.00;;
24761;SDS011;12865;51.934;10.330;2022-09-09T07:48:46;5.95;;;1.60;;
24761;SDS011;12865;51.934;10.330;2022-09-09T07:51:40;3.83;;;1.48;;
24761;SDS011;12865;51.934;10.330;2022-09-09T07:54:28;3.25;;;1.40;;
24761;SDS011;12865;51.934;10.330;2022-09-09T07:57:13;7.15;;;1.48;;
24761;SDS011;12865;51.934;10.330;2022-09-09T08:00:00;4.38;;;1.40;;
24761;SDS011;12865;51.934;10.330;2022-09-09T08:02:47;2.72;;;1.10;;
24761;SDS011;12865;51.934;10.330;2022-09-09T08:05:33;3.55;;;1.38;;
24761;SDS011;12865;51.934;10.330;2022-09-09T08:08:19;3.97;;;1.30;;
24761;SDS011;12865;51.934;10.330;2022-09-09T08:11:06;4.25;;;1.38;;
24761;SDS011;12865;51.934;10.330;2022-09-09T08:16:42;3.58;;;1.10;;
24761;SDS011;12865;51.934;10.330;2022-09-09T08:19:29;4.78;;;1.10;;
24761;SDS011;12865;51.934;10.330;2022-09-09T08:22:15;4.65;;;1.30;;
24761;SDS011;12865;51.934;10.330;2022-09-09T08:25:01;4.20;;;1.30;;
24761;SDS011;12865;51.934;10.330;2022-09-09T08:27:47;3.35;;;1.60;;
24761;SDS011;12865;51.934;10.330;2022-09-09T08:30:33;2.78;;;1.02;;
24761;SDS011;12865;51.934;10.330;2022-09-09T08:33:18;5.32;;;1.27;;
24761;SDS011;12865;51.934;10.330;2022-09-09T08:36:05;3.97;;;1.20;;
24761;SDS011;12865;51.934;10.330;2022-09-09T08:38:53;6.97;;;1.40;;
24761;SDS011;12865;51.934;10.330;2022-09-09T08:50:38;3.90;;;1.50;;
24761;SDS011;12865;51.934;10.330;2022-09-09T08:53:27;5.80;;;1.42;;
24761;SDS011;12865;51.934;10.330;2022-09-09T08:56:18;4.57;;;1.83;;
24761;SDS011;12865;51.934;10.330;2022-09-09T08:59:09;4.43;;;1.27;;
24761;SDS011;12865;51.934;10.330;2022-09-09T09:02:20;2.38;;;1.05;;
24761;SDS011;12865;51.934;10.330;2022-09-09T09:05:30;3.13;;;1.20;;
24761;SDS011;12865;51.934;10.330;2022-09-09T09:08:32;2.95;;;1.05;;
24761;SDS011;12865;51.934;10.330;2022-09-09T09:11:27;2.42;;;1.33;;
24761;SDS011;12865;51.934;10.330;2022-09-09T09:14:20;5.43;;;1.50;;
24761;SDS011;12865;51.934;10.330;2022-09-09T09:17:15;3.25;;;1.35;;
24761;SDS011;12865;51.934;10.330;2022-09-09T09:20:05;5.45;;;1.30;;
24761;SDS011;12865;51.934;10.330;2022-09-09T09:23:00;7.03;;;1.45;;
24761;SDS011;12865;51.934;10.330;2022-09-09T09:25:49;5.00;;;1.50;;
24761;SDS011;12865;51.934;10.330;2022-09-09T09:28:37;4.47;;;1.40;;
24761;SDS011;12865;51.934;10.330;2022-09-09T09:31:25;4.13;;;1.20;;
24761;SDS011;12865;51.934;10.330;2022-09-09T09:34:12;4.10;;;1.27;;
24761;SDS011;12865;51.934;10.330;2022-09-09T09:36:58;6.35;;;1.30;;
24761;SDS011;12865;51.934;10.330;2022-09-09T09:39:48;5.95;;;1.17;;
24761;SDS011;12865;51.934;10.330;2022-09-09T09:42:34;3.65;;;1.20;;
24761;SDS011;12865;51.934;10.330;2022-09-09T09:45:25;5.72;;;1.38;;
24761;SDS011;12865;51.934;10.330;2022-09-09T09:48:14;5.25;;;1.17;;
24761;SDS011;12865;51.934;10.330;2022-09-09T09:51:01;2.80;;;1.20;;
24761;SDS011;12865;51.934;10.330;2022-09-09T09:53:53;3.75;;;1.40;;
24761;SDS011;12865;51.934;10.330;2022-09-09T09:56:39;3.58;;;1.38;;
24761;SDS011;12865;51.934;10.330;2022-09-09T09:59:35;3.33;;;1.30;;
24761;SDS011;12865;51.934;10.330;2022-09-09T10:02:24;3.28;;;1.33;;
24761;SDS011;12865;51.934;10.330;2022-09-09T10:08:23;2.88;;;1.08;;
24761;SDS011;12865;51.934;10.330;2022-09-09T10:11:14;5.30;;;1.23;;
24761;SDS011;12865;51.934;10.330;2022-09-09T10:14:48;7.20;;;1.15;;
24761;SDS011;12865;51.934;10.330;2022-09-09T10:32:40;4.50;;;1.30;;
24761;SDS011;12865;51.934;10.330;2022-09-09T10:35:48;4.05;;;1.80;;
24761;SDS011;12865;51.934;10.330;2022-09-09T10:38:42;5.13;;;1.30;;
24761;SDS011;12865;51.934;10.330;2022-09-09T10:48:40;3.92;;;0.95;;
24761;SDS011;12865;51.934;10.330;2022-09-09T10:54:59;4.50;;;1.08;;
24761;SDS011;12865;51.934;10.330;2022-09-09T10:57:53;4.68;;;1.40;;
24761;SDS011;12865;51.934;10.330;2022-09-09T11:00:49;5.45;;;1.15;;
24761;SDS011;12865;51.934;10.330;2022-09-09T11:03:41;3.95;;;1.40;;
24761;SDS011;12865;51.934;10.330;2022-09-09T11:06:31;5.35;;;1.40;;
24761;SDS011;12865;51.934;10.330;2022-09-09T11:09:26;5.68;;;1.30;;
24761;SDS011;12865;51.934;10.330;2022-09-09T11:12:17;6.63;;;1.25;;
24761;SDS011;12865;51.934;10.330;2022-09-09T11:15:06;2.95;;;1.10;;
24761;SDS011;12865;51.934;10.330;2022-09-09T11:18:01;4.65;;;1.30;;
24761;SDS011;12865;51.934;10.330;2022-09-09T11:20:58;2.22;;;1.10;;
24761;SDS011;12865;51.934;10.330;2022-09-09T11:23:48;2.85;;;1.38;;
24761;SDS011;12865;51.934;10.330;2022-09-09T11:26:47;5.03;;;1.58;;
24761;SDS011;12865;51.934;10.330;2022-09-09T11:38:45;2.28;;;1.10;;
24761;SDS011;12865;51.934;10.330;2022-09-09T11:41:36;5.88;;;1.30;;
24761;SDS011;12865;51.934;10.330;2022-09-09T11:44:27;3.13;;;1.00;;
24761;SDS011;12865;51.934;10.330;2022-09-09T11:47:26;3.13;;;1.10;;
24761;SDS011;12865;51.934;10.330;2022-09-09T11:53:24;2.10;;;0.98;;
24761;SDS011;12865;51.934;10.330;2022-09-09T11:56:12;4.10;;;1.25;;
24761;SDS011;12865;51.934;10.330;2022-09-09T11:59:00;2.83;;;0.90;;
24761;SDS011;12865;51.934;10.330;2022-09-09T12:01:50;4.40;;;1.05;;
24761;SDS011;12865;51.934;10.330;2022-09-09T12:07:58;3.70;;;0.95;;
24761;SDS011;12865;51.934;10.330;2022-09-09T12:10:52;4.50;;;1.10;;
24761;SDS011;12865;51.934;10.330;2022-09-09T12:13:41;3.17;;;1.00;;
24761;SDS011;12865;51.934;10.330;2022-09-09T12:16:38;2.83;;;1.42;;
24761;SDS011;12865;51.934;10.330;2022-09-09T12:19:25;3.10;;;1.00;;
24761;SDS011;12865;51.934;10.330;2022-09-09T12:22:27;3.58;;;0.95;;
24761;SDS011;12865;51.934;10.330;2022-09-09T12:31:41;4.57;;;1.27;;
24761;SDS011;12865;51.934;10.330;2022-09-09T12:34:54;6.38;;;1.20;;
24761;SDS011;12865;51.934;10.330;2022-09-09T12:37:51;4.63;;;1.23;;
24761;SDS011;12865;51.934;10.330;2022-09-09T12:40:42;3.75;;;1.27;;
24761;SDS011;12865;51.934;10.330;2022-09-09T12:43:28;3.05;;;1.20;;
24761;SDS011;12865;51.934;10.330;2022-09-09T12:46:20;4.32;;;1.30;;
24761;SDS011;12865;51.934;10.330;2022-09-09T12:52:30;2.23;;;0.97;;
24761;SDS011;12865;51.934;10.330;2022-09-09T12:55:24;4.90;;;1.23;;
24761;SDS011;12865;51.934;10.330;2022-09-09T12:58:13;4.50;;;1.33;;
24761;SDS011;12865;51.934;10.330;2022-09-09T13:01:04;3.53;;;1.23;;
24761;SDS011;12865;51.934;10.330;2022-09-09T13:03:51;5.03;;;1.63;;
24761;SDS011;12865;51.934;10.330;2022-09-09T13:06:37;4.90;;;1.00;;
24761;SDS011;12865;51.934;10.330;2022-09-09T13:09:23;4.05;;;1.25;;
24761;SDS011;12865;51.934;10.330;2022-09-09T13:12:19;4.13;;;1.10;;
24761;SDS011;12865;51.934;10.330;2022-09-09T13:15:13;3.53;;;1.43;;
24761;SDS011;12865;51.934;10.330;2022-09-09T13:18:11;3.95;;;1.13;;
24761;SDS011;12865;51.934;10.330;2022-09-09T13:20:58;6.30;;;1.35;;
24761;SDS011;12865;51.934;10.330;2022-09-09T13:23:49;3.55;;;1.13;;
24761;SDS011;12865;51.934;10.330;2022-09-09T13:26:37;3.35;;;1.15;;
24761;SDS011;12865;51.934;10.330;2022-09-09T13:29:24;3.00;;;1.30;;
24761;SDS011;12865;51.934;10.330;2022-09-09T13:32:16;3.03;;;1.10;;
24761;SDS011;12865;51.934;10.330;2022-09-09T13:35:03;1.42;;;0.98;;
24761;SDS011;12865;51.934;10.330;2022-09-09T13:37:49;4.45;;;1.00;;
24761;SDS011;12865;51.934;10.330;2022-09-09T13:40:34;2.47;;;1.02;;
24761;SDS011;12865;51.934;10.330;2022-09-09T13:43:22;3.30;;;0.80;;
24761;SDS011;12865;51.934;10.330;2022-09-09T13:49:23;1.85;;;0.90;;
24761;SDS011;12865;51.934;10.330;2022-09-09T13:54:57;2.33;;;0.90;;
24761;SDS011;12865;51.934;10.330;2022-09-09T13:57:53;3.47;;;0.80;;
24761;SDS011;12865;51.934;10.330;2022-09-09T14:00:46;2.38;;;0.80;;
24761;SDS011;12865;51.934;10.330;2022-09-09T14:03:32;3.13;;;0.85;;
24761;SDS011;12865;51.934;10.330;2022-09-09T14:06:19;1.40;;;0.65;;
24761;SDS011;12865;51.934;10.330;2022-09-09T14:09:07;3.33;;;1.02;;
24761;SDS011;12865;51.934;10.330;2022-09-09T14:11:56;2.75;;;0.88;;
24761;SDS011;12865;51.934;10.330;2022-09-09T14:14:42;2.90;;;1.00;;
24761;SDS011;12865;51.934;10.330;2022-09-09T14:17:29;3.22;;;1.30;;
24761;SDS011;12865;51.934;10.330;2022-09-09T14:20:15;2.35;;;0.85;;
24761;SDS011;12865;51.934;10.330;2022-09-09T14:23:02;2.65;;;0.80;;
24761;SDS011;12865;51.934;10.330;2022-09-09T14:25:48;3.35;;;1.08;;
24761;SDS011;12865;51.934;10.330;2022-09-09T14:28:35;3.17;;;1.20;;
24761;SDS011;12865;51.934;10.330;2022-09-09T14:31:21;3.17;;;0.82;;
24761;SDS011;12865;51.934;10.330;2022-09-09T14:34:08;4.18;;;1.20;;
24761;SDS011;12865;51.934;10.330;2022-09-09T14:36:55;3.25;;;1.20;;
24761;SDS011;12865;51.934;10.330;2022-09-09T14:39:41;3.75;;;0.70;;
24761;SDS011;12865;51.934;10.330;2022-09-09T14:42:29;2.30;;;1.23;;
24761;SDS011;12865;51.934;10.330;2022-09-09T14:45:15;5.75;;;0.93;;
24761;SDS011;12865;51.934;10.330;2022-09-09T14:48:01;2.45;;;0.90;;
24761;SDS011;12865;51.934;10.330;2022-09-09T14:50:48;3.20;;;0.80;;
24761;SDS011;12865;51.934;10.330;2022-09-09T14:53:34;1.63;;;0.75;;
24761;SDS011;12865;51.934;10.330;2022-09-09T14:56:21;1.83;;;1.00;;
24761;SDS011;12865;51.934;10.330;2022-09-09T14:59:08;5.47;;;0.93;;
24761;SDS011;12865;51.934;10.330;2022-09-09T15:01:54;1.60;;;0.90;;
24761;SDS011;12865;51.934;10.330;2022-09-09T15:04:39;1.90;;;0.93;;
24761;SDS011;12865;51.934;10.330;2022-09-09T15:07:25;3.22;;;1.13;;
24761;SDS011;12865;51.934;10.330;2022-09-09T15:10:11;4.75;;;1.05;;
24761;SDS011;12865;51.934;10.330;2022-09-09T15:12:57;2.72;;;0.90;;
24761;SDS011;12865;51.934;10.330;2022-09-09T15:15:43;1.75;;;0.80;;
24761;SDS011;12865;51.934;10.330;2022-09-09T15:18:29;3.80;;;0.90;;
24761;SDS011;12865;51.934;10.330;2022-09-09T15:21:16;2.30;;;0.80;;
24761;SDS011;12865;51.934;10.330;2022-09-09T15:24:04;1.25;;;0.80;;
24761;SDS011;12865;51.934;10.330;2022-09-09T15:26:52;4.40;;;1.17;;
24761;SDS011;12865;51.934;10.330;2022-09-09T15:29:39;5.20;;;1.10;;
24761;SDS011;12865;51.934;10.330;2022-09-09T15:32:24;1.48;;;0.80;;
24761;SDS011;12865;51.934;10.330;2022-09-09T15:35:10;3.83;;;0.90;;
24761;SDS011;12865;51.934;10.330;2022-09-09T15:37:55;1.70;;;1.00;;
24761;SDS011;12865;51.934;10.330;2022-09-09T15:40:42;1.25;;;0.75;;
24761;SDS011;12865;51.934;10.330;2022-09-09T15:43:29;1.67;;;0.90;;
24761;SDS011;12865;51.934;10.330;2022-09-09T15:46:33;1.20;;;0.70;;
24761;SDS011;12865;51.934;10.330;2022-09-09T15:49:23;2.38;;;0.80;;
24761;SDS011;12865;51.934;10.330;2022-09-09T15:52:10;3.10;;;1.13;;
24761;SDS011;12865;51.934;10.330;2022-09-09T15:54:56;2.80;;;0.80;;
24761;SDS011;12865;51.934;10.330;2022-09-09T15:57:42;1.83;;;0.68;;
24761;SDS011;12865;51.934;10.330;2022-09-09T16:00:27;2.55;;;1.00;;
24761;SDS011;12865;51.934;10.330;2022-09-09T16:03:14;3.85;;;0.80;;
24761;SDS011;12865;51.934;10.330;2022-09-09T16:06:00;3.63;;;0.90;;
24761;SDS011;12865;51.934;10.330;2022-09-09T16:08:46;2.25;;;0.80;;
24761;SDS011;12865;51.934;10.330;2022-09-09T16:14:22;2.17;;;0.95;;
24761;SDS011;12865;51.934;10.330;2022-09-09T16:17:08;4.22;;;1.10;;
24761;SDS011;12865;51.934;10.330;2022-09-09T16:19:54;1.30;;;0.90;;
24761;SDS011;12865;51.934;10.330;2022-09-09T16:22:39;1.88;;;0.93;;
24761;SDS011;12865;51.934;10.330;2022-09-09T16:25:25;3.10;;;0.85;;
24761;SDS011;12865;51.934;10.330;2022-09-09T16:28:11;2.67;;;0.80;;
24761;SDS011;12865;51.934;10.330;2022-09-09T16:30:57;3.33;;;0.90;;
24761;SDS011;12865;51.934;10.330;2022-09-09T16:33:45;1.63;;;0.80;;
24761;SDS011;12865;51.934;10.330;2022-09-09T16:36:33;0.60;;;0.60;;
24761;SDS011;12865;51.934;10.330;2022-09-09T16:39:20;4.80;;;1.00;;
24761;SDS011;12865;51.934;10.330;2022-09-09T16:42:06;1.60;;;0.70;;
24761;SDS011;12865;51.934;10.330;2022-09-09T16:44:51;2.50;;;1.05;;
24761;SDS011;12865;51.934;10.330;2022-09-09T16:47:37;1.63;;;0.80;;
24761;SDS011;12865;51.934;10.330;2022-09-09T16:50:23;2.78;;;0.98;;
24761;SDS011;12865;51.934;10.330;2022-09-09T16:53:08;2.83;;;0.70;;
24761;SDS011;12865;51.934;10.330;2022-09-09T16:55:54;2.15;;;0.68;;
24761;SDS011;12865;51.934;10.330;2022-09-09T16:58:41;3.80;;;0.75;;
24761;SDS011;12865;51.934;10.330;2022-09-09T17:01:29;2.83;;;0.88;;
24761;SDS011;12865;51.934;10.330;2022-09-09T17:04:26;1.95;;;0.80;;
24761;SDS011;12865;51.934;10.330;2022-09-09T17:07:13;1.85;;;0.73;;
24761;SDS011;12865;51.934;10.330;2022-09-09T17:09:58;3.70;;;0.90;;
24761;SDS011;12865;51.934;10.330;2022-09-09T17:12:44;0.82;;;0.80;;
24761;SDS011;12865;51.934;10.330;2022-09-09T17:15:31;4.00;;;1.00;;
24761;SDS011;12865;51.934;10.330;2022-09-09T17:18:17;1.77;;;1.00;;
24761;SDS011;12865;51.934;10.330;2022-09-09T17:21:06;1.70;;;0.90;;
24761;SDS011;12865;51.934;10.330;2022-09-09T17:23:54;4.70;;;1.20;;
24761;SDS011;12865;51.934;10.330;2022-09-09T17:26:40;2.17;;;1.08;;
24761;SDS011;12865;51.934;10.330;2022-09-09T17:29:27;2.38;;;0.90;;
24761;SDS011;12865;51.934;10.330;2022-09-09T17:32:12;2.45;;;0.80;;
24761;SDS011;12865;51.934;10.330;2022-09-09T17:34:58;3.47;;;0.90;;
24761;SDS011;12865;51.934;10.330;2022-09-09T17:37:44;3.30;;;1.08;;
24761;SDS011;12865;51.934;10.330;2022-09-09T17:40:30;2.75;;;0.90;;
24761;SDS011;12865;51.934;10.330;2022-09-09T17:43:15;2.88;;;1.00;;
24761;SDS011;12865;51.934;10.330;2022-09-09T17:46:09;3.92;;;0.70;;
24761;SDS011;12865;51.934;10.330;2022-09-09T17:48:59;3.08;;;1.00;;
24761;SDS011;12865;51.934;10.330;2022-09-09T17:51:50;3.00;;;0.80;;
24761;SDS011;12865;51.934;10.330;2022-09-09T17:54:36;2.70;;;0.77;;
24761;SDS011;12865;51.934;10.330;2022-09-09T17:57:22;2.45;;;1.27;;
24761;SDS011;12865;51.934;10.330;2022-09-09T18:00:08;2.85;;;1.00;;
24761;SDS011;12865;51.934;10.330;2022-09-09T18:02:55;2.65;;;0.93;;
24761;SDS011;12865;51.934;10.330;2022-09-09T18:05:40;1.63;;;1.10;;
24761;SDS011;12865;51.934;10.330;2022-09-09T18:08:26;6.07;;;1.30;;
24761;SDS011;12865;51.934;10.330;2022-09-09T18:11:13;2.50;;;1.20;;
24761;SDS011;12865;51.934;10.330;2022-09-09T18:14:00;3.05;;;0.85;;
24761;SDS011;12865;51.934;10.330;2022-09-09T18:16:47;5.47;;;0.93;;
24761;SDS011;12865;51.934;10.330;2022-09-09T18:19:33;2.47;;;1.13;;
24761;SDS011;12865;51.934;10.330;2022-09-09T18:22:19;4.25;;;1.00;;
24761;SDS011;12865;51.934;10.330;2022-09-09T18:25:05;2.33;;;0.90;;
24761;SDS011;12865;51.934;10.330;2022-09-09T18:27:51;3.85;;;1.05;;
24761;SDS011;12865;51.934;10.330;2022-09-09T18:30:38;2.90;;;0.90;;
24761;SDS011;12865;51.934;10.330;2022-09-09T18:33:24;2.95;;;1.00;;
24761;SDS011;12865;51.934;10.330;2022-09-09T18:36:12;2.63;;;1.08;;